Hill Air Force Base Ogden US
ICAO: KHIF
IATA: HIF
Category: Medium
Scheduled Services: No

Elevation: 4789 ft
TransAlt. 18000 ft.

Airport Communications:
SALT LAKE CITY APP:25.787
SALT LAKE CITY APP:31.925
SALT LAKE CITY APP:121.1
ATIS:134.925
CLNC DEL:124.1
SALT LAKE CITY DEP:121.1
GND:121.6
419 OPS:25.21
PMSV METRO:34.23
COMD POST:38.13
PTD:139.3
TWR:127.15

KHIF Zoom In..

If Map Doesn't Load, Click Here

Runways:

(A) RW 14 length 13508 ft width 200 ft
ILS 109.90 / hdg 139

(B) RW 32 length 13508 ft width 200 ft
---- / hdg 319

Location; KHIF
Day. 18 / Time. 19.56 Zulu
* Altimeter: 29.94
* Temperature: 28° c. 82.4°f.
* Wind from: 310° Speed 09 kn with Gusts up to 15 kn.
Dewpoint: -01° c.
Visibility: 10 Statute Miles.
Clouds: Few 7000 ft.

KHIF 181956Z 31009G15KT 10SM FEW070 28/M01 A2994 RMK AO2A SLP079 T02751015


Wind From 310°
Speed 09 kn.

 
 
jpsmedia.com for Web Design worldairports.se 2018   terms of use